Time;durP1;ratioP1;P1;durP2;ratioP2;P2;SDS_P1;SDS_P2;PMS_P1;PMS_P2;Temp;Humidity;BMP_temperature;BMP_pressure;BME280_temperature;BME280_humidity;BME280_pressure;Samples;Min_cycle;Max_cycle;Signal;HPM_P1;HPM_P2
2022/07/10 00:01:08;;;;;;;4.10;3.80;;;19.30;99.90;;;;;;5031657;28;20442;-69
2022/07/10 00:03:34;;;;;;;7.80;5.43;;;19.00;99.90;;;;;;5030643;28;20542;-69
2022/07/10 00:06:00;;;;;;;5.77;4.83;;;19.10;99.90;;;;;;5030151;28;20179;-68
2022/07/10 00:08:26;;;;;;;6.53;4.37;;;19.30;99.90;;;;;;5028145;28;20175;-68
2022/07/10 00:10:52;;;;;;;5.77;5.10;;;19.30;99.90;;;;;;5029032;28;21086;-69
2022/07/10 00:13:18;;;;;;;10.80;5.00;;;19.40;99.90;;;;;;5030340;28;20195;-67
2022/07/10 00:15:43;;;;;;;7.10;6.10;;;19.50;99.90;;;;;;5030119;28;20175;-67
2022/07/10 00:18:09;;;;;;;7.40;4.87;;;19.50;99.90;;;;;;5030013;28;20286;-67
2022/07/10 00:20:36;;;;;;;6.33;5.70;;;19.50;99.90;;;;;;5030118;28;20219;-68
2022/07/10 00:23:01;;;;;;;8.20;4.60;;;19.50;99.90;;;;;;5030968;28;20229;-68
2022/07/10 00:25:27;;;;;;;5.33;4.83;;;19.50;99.90;;;;;;5030125;28;20434;-67
2022/07/10 00:27:53;;;;;;;5.53;4.93;;;19.50;99.90;;;;;;5030044;28;20632;-70
2022/07/10 00:30:19;;;;;;;6.20;4.63;;;19.40;99.90;;;;;;5029537;28;20448;-69
2022/07/10 00:32:45;;;;;;;4.80;4.43;;;19.50;99.90;;;;;;5029805;28;20187;-67
2022/07/10 00:35:10;;;;;;;4.43;4.03;;;19.30;99.90;;;;;;5028857;28;20609;-68
2022/07/10 00:37:36;;;;;;;5.97;5.00;;;19.20;99.90;;;;;;5028566;28;20206;-68
2022/07/10 00:40:04;;;;;;;4.70;4.30;;;19.30;99.90;;;;;;5029286;28;21062;-68
2022/07/10 00:42:30;;;;;;;4.80;4.43;;;19.40;99.90;;;;;;5028544;28;20164;-67
2022/07/10 00:44:56;;;;;;;5.80;5.30;;;19.50;99.90;;;;;;5029450;28;20508;-68
2022/07/10 00:47:22;;;;;;;13.30;5.30;;;19.60;99.90;;;;;;5029665;28;20503;-68
2022/07/10 00:49:48;;;;;;;9.63;5.40;;;19.60;99.90;;;;;;5029002;28;20597;-67
2022/07/10 00:52:15;;;;;;;7.30;5.07;;;19.60;99.90;;;;;;5023657;28;20438;-67
2022/07/10 00:54:47;;;;;;;8.40;5.60;;;19.50;99.90;;;;;;5029201;28;20453;-67
2022/07/10 00:57:14;;;;;;;6.73;5.47;;;19.50;99.90;;;;;;5029329;28;20454;-66
2022/07/10 00:59:40;;;;;;;5.73;5.20;;;19.50;99.90;;;;;;5028640;28;20414;-68
2022/07/10 01:02:07;;;;;;;5.20;4.73;;;19.50;99.90;;;;;;5029422;28;20471;-67
2022/07/10 01:04:33;;;;;;;7.03;5.50;;;19.50;99.90;;;;;;5029380;28;20438;-67
2022/07/10 01:06:59;;;;;;;5.53;4.97;;;19.50;99.90;;;;;;5028395;28;20421;-67
2022/07/10 01:09:25;;;;;;;10.73;5.40;;;19.50;99.90;;;;;;5029041;28;20461;-68
2022/07/10 01:11:51;;;;;;;8.50;5.67;;;19.50;99.90;;;;;;5029156;28;20810;-68
2022/07/10 01:14:17;;;;;;;16.77;5.00;;;19.50;99.90;;;;;;5029324;28;20526;-67
2022/07/10 01:16:43;;;;;;;6.73;5.00;;;19.60;99.90;;;;;;5029561;28;20563;-67
2022/07/10 01:19:09;;;;;;;9.30;5.20;;;19.60;99.90;;;;;;5029037;28;20186;-67
2022/07/10 01:21:36;;;;;;;5.97;5.13;;;19.60;99.90;;;;;;5028324;28;20534;-67
2022/07/10 01:24:08;;;;;;;5.10;4.60;;;19.60;99.90;;;;;;5028660;28;20286;-68
2022/07/10 01:26:34;;;;;;;4.70;4.20;;;19.50;99.90;;;;;;5029105;28;20430;-67
2022/07/10 01:29:03;;;;;;;6.17;4.97;;;19.40;99.90;;;;;;5028484;28;20418;-68
2022/07/10 01:31:29;;;;;;;5.47;4.93;;;19.40;99.90;;;;;;5028826;28;20954;-67
2022/07/10 01:33:56;;;;;;;12.30;5.77;;;19.50;99.90;;;;;;5020483;28;20505;-66
2022/07/10 01:36:22;;;;;;;6.73;5.17;;;19.50;99.90;;;;;;5028990;28;20203;-67
2022/07/10 01:38:51;;;;;;;8.03;5.27;;;19.50;99.90;;;;;;5027061;28;20586;-67
2022/07/10 01:41:16;;;;;;;12.07;5.80;;;19.50;99.90;;;;;;5022409;28;20470;-66
2022/07/10 01:43:44;;;;;;;5.87;5.30;;;19.50;99.90;;;;;;5027985;28;20968;-67
2022/07/10 01:46:11;;;;;;;5.80;5.20;;;19.40;99.90;;;;;;5029240;28;20663;-68
2022/07/10 01:48:37;;;;;;;7.53;5.40;;;19.40;99.90;;;;;;5028422;28;20937;-67
2022/07/10 01:51:03;;;;;;;9.10;5.13;;;19.40;99.90;;;;;;5028133;28;20497;-67
2022/07/10 01:53:29;;;;;;;15.70;5.33;;;19.30;99.90;;;;;;5028464;28;20458;-67
2022/07/10 01:55:55;;;;;;;12.50;5.23;;;19.30;99.90;;;;;;5028322;28;20756;-67
2022/07/10 01:58:21;;;;;;;9.10;5.90;;;19.30;99.90;;;;;;5027848;28;20218;-67
2022/07/10 02:00:47;;;;;;;12.83;6.10;;;19.20;99.90;;;;;;5027114;28;20461;-66
2022/07/10 02:05:57;;;;;;;12.63;5.97;;;19.00;99.90;;;;;;5028873;28;20259;-67
2022/07/10 02:08:23;;;;;;;5.63;4.80;;;19.00;99.90;;;;;;5028117;28;20915;-67
2022/07/10 02:10:49;;;;;;;8.63;5.90;;;19.00;99.90;;;;;;5027791;28;20191;-67
2022/07/10 02:13:17;;;;;;;7.00;6.33;;;18.90;99.90;;;;;;5028620;28;20187;-67
2022/07/10 02:15:43;;;;;;;5.50;5.00;;;18.80;99.90;;;;;;5028247;28;20418;-69
2022/07/10 02:18:09;;;;;;;7.40;6.60;;;18.80;99.90;;;;;;5030128;28;20544;-68
2022/07/10 02:20:36;;;;;;;6.60;6.00;;;18.90;99.90;;;;;;5029263;28;20195;-68
2022/07/10 02:23:02;;;;;;;11.23;5.60;;;18.90;99.90;;;;;;5028643;28;20422;-69
2022/07/10 02:25:27;;;;;;;16.60;5.90;;;18.90;99.90;;;;;;5030060;28;20996;-69
2022/07/10 02:27:53;;;;;;;5.90;5.30;;;18.90;99.90;;;;;;5028993;28;20524;-69
2022/07/10 02:30:19;;;;;;;11.17;6.03;;;18.90;99.90;;;;;;5028948;28;20183;-68
2022/07/10 02:32:45;;;;;;;11.93;6.53;;;18.80;99.90;;;;;;5030553;28;20266;-68
2022/07/10 02:35:10;;;;;;;6.07;5.47;;;18.80;99.90;;;;;;5033378;28;20175;-68
2022/07/10 02:37:36;;;;;;;6.20;5.70;;;18.60;99.90;;;;;;5034946;28;20222;-67
2022/07/10 02:40:03;;;;;;;5.53;5.03;;;18.70;99.90;;;;;;5033874;28;20203;-69
2022/07/10 02:42:29;;;;;;;7.57;4.60;;;18.70;99.90;;;;;;5033639;28;20600;-68
2022/07/10 02:44:54;;;;;;;56.83;11.30;;;18.70;99.90;;;;;;5032822;28;20467;-68
2022/07/10 02:47:20;;;;;;;7.50;5.97;;;18.80;99.90;;;;;;5032497;28;20628;-69
2022/07/10 02:49:46;;;;;;;12.37;5.80;;;18.70;99.90;;;;;;5032732;28;20175;-69
2022/07/10 02:52:11;;;;;;;8.53;5.23;;;18.70;99.90;;;;;;5033537;28;20308;-69
2022/07/10 02:54:38;;;;;;;9.03;5.80;;;18.70;99.90;;;;;;5032765;28;20241;-69
2022/07/10 02:57:04;;;;;;;23.17;7.10;;;18.50;99.90;;;;;;5039874;28;20651;-67
2022/07/10 02:59:30;;;;;;;15.33;6.13;;;18.50;99.90;;;;;;5041520;28;20438;-69
2022/07/10 03:01:56;;;;;;;10.30;6.43;;;18.60;99.90;;;;;;5040507;28;20461;-68
2022/07/10 03:04:22;;;;;;;9.60;6.30;;;18.50;99.90;;;;;;5041529;28;20219;-68
2022/07/10 03:06:47;;;;;;;13.37;5.97;;;18.50;99.90;;;;;;5043250;28;20495;-68
2022/07/10 03:09:13;;;;;;;8.07;6.10;;;18.40;99.90;;;;;;5045456;28;20182;-67
2022/07/10 03:11:39;;;;;;;12.60;5.73;;;18.30;99.90;;;;;;5048135;28;20200;-69
2022/07/10 03:14:05;;;;;;;16.37;5.90;;;18.30;99.90;;;;;;5047999;28;20172;-67
2022/07/10 03:16:32;;;;;;;9.60;5.20;;;18.30;99.90;;;;;;5048263;28;20600;-68
2022/07/10 03:18:57;;;;;;;7.10;5.97;;;18.30;99.90;;;;;;5044339;28;20934;-68
2022/07/10 03:21:23;;;;;;;13.97;6.70;;;18.20;99.90;;;;;;5031625;28;20591;-69
2022/07/10 03:23:50;;;;;;;13.30;6.30;;;18.20;99.90;;;;;;5031998;28;20187;-69
2022/07/10 03:26:15;;;;;;;26.27;8.00;;;18.20;99.90;;;;;;5031781;28;20195;-69
2022/07/10 03:28:41;;;;;;;27.90;7.77;;;18.20;99.90;;;;;;5030756;28;20414;-68
2022/07/10 03:31:07;;;;;;;23.17;8.50;;;18.20;99.90;;;;;;5032077;28;20203;-69
2022/07/10 03:33:33;;;;;;;13.77;6.90;;;18.20;99.90;;;;;;5031911;28;20605;-69
2022/07/10 03:36:01;;;;;;;20.97;8.20;;;18.20;99.90;;;;;;5031050;28;20183;-69
2022/07/10 03:38:27;;;;;;;8.60;7.07;;;18.20;99.90;;;;;;5031046;28;20200;-68
2022/07/10 03:40:53;;;;;;;10.50;7.40;;;18.20;99.90;;;;;;5031873;28;20944;-68
2022/07/10 03:43:18;;;;;;;14.40;9.57;;;18.10;99.90;;;;;;5030800;28;20426;-68
2022/07/10 03:45:44;;;;;;;25.80;8.27;;;18.20;99.90;;;;;;5029852;28;20234;-68
2022/07/10 03:48:10;;;;;;;15.83;8.97;;;18.20;99.90;;;;;;5030747;28;20707;-67
2022/07/10 03:50:36;;;;;;;18.13;9.13;;;18.20;99.90;;;;;;5030926;28;20196;-67
2022/07/10 03:53:01;;;;;;;14.13;8.00;;;18.20;99.90;;;;;;5032157;28;20275;-67
2022/07/10 03:55:27;;;;;;;17.80;7.97;;;18.30;99.90;;;;;;5031244;28;20519;-68
2022/07/10 03:57:53;;;;;;;10.53;8.30;;;18.30;99.90;;;;;;5030298;28;20206;-68
2022/07/10 04:00:23;;;;;;;19.50;7.93;;;18.20;99.90;;;;;;5030093;28;20438;-68
2022/07/10 04:02:57;;;;;;;32.17;9.47;;;18.20;99.90;;;;;;5031268;28;20194;-67
2022/07/10 04:05:24;;;;;;;12.73;9.40;;;18.10;99.90;;;;;;5024214;28;20911;-67
2022/07/10 04:07:50;;;;;;;9.60;7.47;;;18.10;1.00;;;;;;5030699;28;20464;-67
2022/07/10 04:10:16;;;;;;;16.90;8.20;;;18.10;1.00;;;;;;5030335;28;20818;-68
2022/07/10 04:12:42;;;;;;;23.03;9.70;;;18.20;1.00;;;;;;5030817;28;20172;-67
2022/07/10 04:15:08;;;;;;;19.03;8.70;;;18.30;99.90;;;;;;5029512;28;20541;-68
2022/07/10 04:17:34;;;;;;;18.63;8.30;;;18.30;99.90;;;;;;5030388;28;20539;-67
2022/07/10 04:20:00;;;;;;;21.93;7.97;;;18.30;99.90;;;;;;5029784;28;20446;-67
2022/07/10 04:22:27;;;;;;;28.73;9.90;;;18.40;99.90;;;;;;5030438;28;20174;-67
2022/07/10 04:24:53;;;;;;;25.93;8.83;;;18.60;99.90;;;;;;5028545;28;20509;-67
2022/07/10 04:27:19;;;;;;;11.73;9.37;;;18.80;99.90;;;;;;5029288;28;20753;-67
2022/07/10 04:29:45;;;;;;;13.10;8.50;;;18.90;99.90;;;;;;5029384;28;20415;-67
2022/07/10 04:32:11;;;;;;;10.23;8.20;;;19.00;99.90;;;;;;5029633;28;20203;-68
2022/07/10 04:34:37;;;;;;;10.73;8.23;;;18.90;99.90;;;;;;5030260;28;20349;-68
2022/07/10 04:37:03;;;;;;;9.10;7.93;;;18.80;99.90;;;;;;5028887;28;20548;-68
2022/07/10 04:39:29;;;;;;;24.07;9.60;;;18.90;99.90;;;;;;5029950;28;20770;-68
2022/07/10 04:41:54;;;;;;;30.77;9.60;;;19.10;99.90;;;;;;5028484;28;20460;-68
2022/07/10 04:44:20;;;;;;;23.30;9.17;;;19.20;99.90;;;;;;5029589;28;20186;-67
2022/07/10 04:46:46;;;;;;;10.80;7.57;;;19.40;99.90;;;;;;5030255;28;20175;-68
2022/07/10 04:49:12;;;;;;;29.47;9.90;;;19.60;99.90;;;;;;5029199;28;20207;-68
2022/07/10 04:51:38;;;;;;;14.97;8.03;;;19.70;99.90;;;;;;5029666;28;20377;-68
2022/07/10 04:54:03;;;;;;;56.17;12.73;;;19.80;99.90;;;;;;5029799;28;20513;-68
2022/07/10 04:56:29;;;;;;;58.37;11.33;;;19.80;99.90;;;;;;5028576;28;20268;-68
2022/07/10 04:58:55;;;;;;;29.60;9.70;;;20.00;99.90;;;;;;5028523;28;20180;-68
2022/07/10 05:01:21;;;;;;;45.40;11.20;;;20.10;99.90;;;;;;5029419;28;20231;-68
2022/07/10 05:03:47;;;;;;;15.03;7.83;;;20.10;99.90;;;;;;5029909;28;20383;-68
2022/07/10 05:06:13;;;;;;;21.17;8.27;;;20.10;99.90;;;;;;5027483;28;20482;-68
2022/07/10 05:08:39;;;;;;;28.60;9.00;;;20.20;99.90;;;;;;5029569;28;20414;-68
2022/07/10 05:11:05;;;;;;;25.10;8.57;;;20.20;99.90;;;;;;5028921;28;20206;-68
2022/07/10 05:13:31;;;;;;;10.23;9.23;;;20.50;99.90;;;;;;5029990;28;20186;-69
2022/07/10 05:15:56;;;;;;;15.47;8.47;;;20.50;99.90;;;;;;5028666;28;20434;-69
2022/07/10 05:18:22;;;;;;;23.83;9.20;;;20.30;99.90;;;;;;5027674;28;20188;-68
2022/07/10 05:20:49;;;;;;;29.03;10.63;;;20.50;99.90;;;;;;5025593;28;20196;-68
2022/07/10 05:23:15;;;;;;;15.93;8.97;;;20.60;99.90;;;;;;5024047;28;20183;-69
2022/07/10 05:25:41;;;;;;;39.67;11.00;;;20.80;99.90;;;;;;5022395;28;20483;-69
2022/07/10 05:28:08;;;;;;;13.97;8.10;;;21.00;99.90;;;;;;5020884;28;20502;-68
2022/07/10 05:30:34;;;;;;;16.23;8.07;;;20.80;99.90;;;;;;5021802;28;20446;-68
2022/07/10 05:33:00;;;;;;;16.77;8.87;;;20.70;99.90;;;;;;5022489;28;20430;-69
2022/07/10 05:35:26;;;;;;;11.47;7.80;;;20.70;99.90;;;;;;5021389;28;20805;-67
2022/07/10 05:37:52;;;;;;;48.17;12.33;;;20.70;99.90;;;;;;5026252;28;20462;-69
2022/07/10 05:40:18;;;;;;;17.30;8.90;;;20.60;99.90;;;;;;5020779;28;20588;-69
2022/07/10 05:42:44;;;;;;;46.70;9.30;;;20.50;99.90;;;;;;5021488;28;20501;-67
2022/07/10 05:45:11;;;;;;;18.30;9.00;;;20.40;99.90;;;;;;5020644;28;20259;-69
2022/07/10 05:47:37;;;;;;;38.30;8.97;;;20.20;99.90;;;;;;5023811;28;20171;-69
2022/07/10 05:50:03;;;;;;;9.40;6.40;;;20.10;99.90;;;;;;5021734;28;20430;-68
2022/07/10 05:52:29;;;;;;;10.90;6.80;;;20.00;99.90;;;;;;5021905;28;20186;-67
2022/07/10 05:54:58;;;;;;;10.07;7.20;;;19.80;99.90;;;;;;5021625;28;20903;-68
2022/07/10 05:57:24;;;;;;;7.90;7.20;;;19.70;99.90;;;;;;5018434;28;20553;-68
2022/07/10 05:59:50;;;;;;;7.93;7.10;;;19.40;99.90;;;;;;5018949;28;20426;-68
2022/07/10 06:02:16;;;;;;;11.60;7.10;;;19.20;99.90;;;;;;5022164;28;20410;-68
2022/07/10 06:04:42;;;;;;;9.40;6.83;;;19.30;99.90;;;;;;5020623;28;20179;-68
2022/07/10 06:07:08;;;;;;;9.23;7.40;;;19.40;99.90;;;;;;5020316;28;20180;-68
2022/07/10 06:09:34;;;;;;;6.60;6.10;;;19.40;99.90;;;;;;5024132;28;20469;-69
2022/07/10 06:12:00;;;;;;;21.23;7.80;;;19.30;99.90;;;;;;5019019;28;20609;-68
2022/07/10 06:14:26;;;;;;;6.33;5.83;;;19.40;99.90;;;;;;5021155;28;20851;-69
2022/07/10 06:16:52;;;;;;;16.07;7.57;;;19.20;99.90;;;;;;5023541;28;20199;-69
2022/07/10 06:19:19;;;;;;;19.00;8.10;;;19.50;99.90;;;;;;5027462;28;20187;-68
2022/07/10 06:21:45;;;;;;;20.20;7.43;;;20.00;99.90;;;;;;5027018;28;20768;-68
2022/07/10 06:24:10;;;;;;;12.43;6.53;;;20.20;99.90;;;;;;5027629;28;20886;-68
2022/07/10 06:26:36;;;;;;;6.97;5.90;;;20.60;99.90;;;;;;5027263;28;20187;-69
2022/07/10 06:29:02;;;;;;;10.10;6.40;;;20.30;99.90;;;;;;5027586;28;20179;-68
2022/07/10 06:31:28;;;;;;;22.27;7.13;;;20.10;99.90;;;;;;5028778;28;20199;-68
2022/07/10 06:33:54;;;;;;;19.10;6.70;;;20.20;99.90;;;;;;5029017;28;20467;-67
2022/07/10 06:36:20;;;;;;;31.43;7.00;;;20.60;99.90;;;;;;5024981;28;20194;-68
2022/07/10 06:38:46;;;;;;;22.77;6.40;;;20.80;99.90;;;;;;5027924;28;20423;-69
2022/07/10 06:41:11;;;;;;;6.17;5.57;;;20.50;99.90;;;;;;5027978;28;20218;-69
2022/07/10 06:43:37;;;;;;;50.53;11.73;;;20.30;99.90;;;;;;5028441;28;20207;-70
2022/07/10 06:46:03;;;;;;;5.97;5.10;;;20.90;99.90;;;;;;5007674;28;20259;-68
2022/07/10 06:48:29;;;;;;;13.90;5.70;;;20.40;99.90;;;;;;5008434;28;20601;-68
2022/07/10 06:50:55;;;;;;;8.17;6.90;;;20.70;99.90;;;;;;5020885;28;20222;-68
2022/07/10 06:53:26;;;;;;;21.73;8.07;;;21.10;99.90;;;;;;5028652;28;20544;-68
2022/07/10 06:55:53;;;;;;;9.60;7.73;;;21.00;99.90;;;;;;5017636;28;20179;-68
2022/07/10 06:58:19;;;;;;;6.70;6.03;;;21.30;99.90;;;;;;5027945;28;20938;-68
2022/07/10 07:00:44;;;;;;;14.30;7.47;;;21.30;99.90;;;;;;5028694;28;20422;-69
2022/07/10 07:03:10;;;;;;;7.87;6.40;;;22.00;99.90;;;;;;5026767;28;20635;-69
2022/07/10 07:05:36;;;;;;;7.33;5.30;;;22.40;99.90;;;;;;5027677;28;20174;-69
2022/07/10 07:08:02;;;;;;;23.20;7.83;;;22.50;99.90;;;;;;5028522;28;20242;-69
2022/07/10 07:10:28;;;;;;;72.93;10.37;;;22.00;99.90;;;;;;5028364;28;21216;-69
2022/07/10 07:12:53;;;;;;;9.53;6.67;;;22.00;99.90;;;;;;5026630;28;20275;-69
2022/07/10 07:15:23;;;;;;;6.93;4.77;;;22.00;99.90;;;;;;5028152;28;20608;-69
2022/07/10 07:18:07;;;;;;;13.53;6.40;;;21.70;99.90;;;;;;5028254;28;20749;-70
2022/07/10 07:23:19;;;;;;;13.37;6.23;;;21.60;99.90;;;;;;5030539;28;20426;-67
2022/07/10 07:25:46;;;;;;;22.13;6.70;;;21.20;99.90;;;;;;5024498;28;20410;-69
2022/07/10 07:28:15;;;;;;;37.90;8.23;;;21.30;99.90;;;;;;5022991;28;20410;-69
2022/07/10 07:30:41;;;;;;;19.30;5.67;;;21.30;99.90;;;;;;5028532;28;20461;-69
2022/07/10 07:33:07;;;;;;;30.63;6.20;;;21.40;99.90;;;;;;5030265;28;20492;-68
2022/07/10 07:35:33;;;;;;;15.70;5.33;;;21.30;99.90;;;;;;5025725;28;20493;-68
2022/07/10 07:38:02;;;;;;;34.93;6.70;;;21.30;99.90;;;;;;5026173;28;20491;-68
2022/07/10 07:40:28;;;;;;;17.10;5.00;;;21.30;99.90;;;;;;5027127;28;20961;-69
2022/07/10 07:42:54;;;;;;;15.23;4.90;;;21.10;99.90;;;;;;5027114;28;20431;-68
2022/07/10 07:45:24;;;;;;;22.93;6.17;;;21.40;99.90;;;;;;5025566;28;20779;-69
2022/07/10 07:47:59;;;;;;;14.40;4.13;;;21.90;99.90;;;;;;5022297;28;20849;-69
2022/07/10 07:50:28;;;;;;;24.43;5.00;;;21.80;99.90;;;;;;5022805;28;20509;-68
2022/07/10 07:52:54;;;;;;;12.00;4.10;;;21.70;99.90;;;;;;5028150;28;20788;-68
2022/07/10 07:55:22;;;;;;;71.50;8.97;;;21.90;99.90;;;;;;5025952;28;20434;-68
2022/07/10 07:57:50;;;;;;;51.87;9.40;;;22.50;99.90;;;;;;5023262;28;20462;-70
2022/07/10 08:00:22;;;;;;;66.17;11.80;;;22.80;99.90;;;;;;5033464;28;20776;-69
2022/07/10 08:02:48;;;;;;;11.43;4.30;;;22.80;99.90;;;;;;5023761;28;20423;-69
2022/07/10 08:05:14;;;;;;;12.70;4.70;;;22.70;99.90;;;;;;5027041;28;20505;-69
2022/07/10 08:07:42;;;;;;;6.83;2.90;;;22.90;99.90;;;;;;5025518;28;20442;-69
2022/07/10 08:10:10;;;;;;;12.13;3.47;;;22.80;99.90;;;;;;5026285;28;20234;-71
2022/07/10 08:12:36;;;;;;;11.07;3.20;;;23.00;99.90;;;;;;5036608;28;20436;-69
2022/07/10 08:15:02;;;;;;;5.13;2.90;;;22.80;99.90;;;;;;5037440;28;20543;-68
2022/07/10 08:17:28;;;;;;;38.63;5.87;;;22.80;99.90;;;;;;5036883;28;20492;-70
2022/07/10 08:19:54;;;;;;;17.20;4.53;;;23.30;99.90;;;;;;5038649;28;20435;-69
2022/07/10 08:22:20;;;;;;;6.20;2.87;;;23.70;99.90;;;;;;5042763;28;20433;-69
2022/07/10 08:24:46;;;;;;;7.10;3.23;;;23.50;99.90;;;;;;5035414;28;20422;-69
2022/07/10 08:27:12;;;;;;;33.33;4.47;;;23.40;99.90;;;;;;5036981;28;20180;-67
2022/07/10 08:29:38;;;;;;;78.20;9.80;;;23.70;99.90;;;;;;5036850;28;20175;-68
2022/07/10 08:32:04;;;;;;;58.47;8.67;;;23.70;99.90;;;;;;5042003;28;21237;-68
2022/07/10 08:34:32;;;;;;;27.43;5.77;;;23.90;99.90;;;;;;5027927;28;20449;-69
2022/07/10 08:36:58;;;;;;;9.80;4.47;;;24.00;99.90;;;;;;5022988;28;20461;-67
2022/07/10 08:39:24;;;;;;;19.07;4.53;;;24.00;99.90;;;;;;5025288;28;20782;-72
2022/07/10 08:41:50;;;;;;;24.03;6.80;;;24.10;99.90;;;;;;5024442;28;20235;-70
2022/07/10 08:44:19;;;;;;;14.37;3.73;;;24.10;99.90;;;;;;5024505;28;20172;-69
2022/07/10 08:46:45;;;;;;;11.70;4.43;;;23.80;99.90;;;;;;5024213;28;20195;-69
2022/07/10 08:49:13;;;;;;;8.33;3.20;;;23.50;99.90;;;;;;5024836;28;20528;-69
2022/07/10 08:52:04;;;;;;;16.87;4.43;;;23.00;99.90;;;;;;5025695;28;20446;-69
2022/07/10 08:54:32;;;;;;;18.57;4.47;;;23.00;99.90;;;;;;5023054;28;20422;-69
2022/07/10 08:57:00;;;;;;;8.80;3.00;;;23.30;99.90;;;;;;5022446;28;20459;-69
2022/07/10 08:59:27;;;;;;;5.03;2.60;;;23.00;99.90;;;;;;5027397;28;20855;-68
2022/07/10 09:01:56;;;;;;;15.70;3.83;;;22.40;99.90;;;;;;5022052;28;20450;-71
2022/07/10 09:04:25;;;;;;;8.77;3.60;;;22.40;99.90;;;;;;5024616;28;20491;-68
2022/07/10 09:06:52;;;;;;;9.17;2.90;;;22.20;99.90;;;;;;5021707;28;20484;-70
2022/07/10 09:09:19;;;;;;;8.57;3.10;;;22.20;99.90;;;;;;5022907;28;20422;-71
2022/07/10 09:11:45;;;;;;;5.70;2.43;;;22.20;99.90;;;;;;5024365;28;20442;-69
2022/07/10 09:14:14;;;;;;;6.93;3.00;;;21.90;99.90;;;;;;5024749;28;21680;-68
2022/07/10 09:16:41;;;;;;;5.33;3.30;;;22.20;99.90;;;;;;5024839;28;20815;-70
2022/07/10 09:19:24;;;;;;;16.03;3.70;;;22.50;99.90;;;;;;5021398;28;20518;-67
2022/07/10 09:22:05;;;;;;;12.80;4.20;;;22.60;99.90;;;;;;5025585;28;20794;-68
2022/07/10 09:24:43;;;;;;;9.10;3.60;;;23.00;99.70;;;;;;5040665;28;20509;-69
2022/07/10 09:27:10;;;;;;;13.87;3.63;;;23.20;96.80;;;;;;5026520;28;20462;-70
2022/07/10 09:29:57;;;;;;;62.70;10.73;;;23.40;96.10;;;;;;5026415;28;20481;-67
2022/07/10 09:32:23;;;;;;;4.93;3.40;;;23.60;95.40;;;;;;5026683;28;20513;-71
2022/07/10 09:36:04;;;;;;;11.80;4.97;;;23.20;92.90;;;;;;5022401;28;20494;-67
2022/07/10 09:37:42;;;;;;;27.77;4.60;;;23.30;92.70;;;;;;5027730;28;20457;-70
2022/07/10 09:40:09;;;;;;;11.30;3.53;;;23.70;92.60;;;;;;5026157;28;20842;-70
2022/07/10 09:42:36;;;;;;;9.40;4.70;;;23.40;91.40;;;;;;5027051;28;20419;-71
2022/07/10 09:45:13;;;;;;;13.17;3.30;;;23.20;91.40;;;;;;5027693;28;20918;-71
2022/07/10 09:47:54;;;;;;;2.53;2.20;;;23.80;93.10;;;;;;5022592;28;20519;-70
2022/07/10 09:50:34;;;;;;;5.93;3.40;;;22.90;91.10;;;;;;5027446;28;20452;-70
2022/07/10 09:53:10;;;;;;;7.83;2.93;;;22.50;89.30;;;;;;5027558;28;20505;-70
2022/07/10 09:55:36;;;;;;;11.93;3.93;;;22.60;87.20;;;;;;5021020;28;20414;-70
2022/07/10 09:58:06;;;;;;;5.53;2.83;;;22.90;86.50;;;;;;5027141;28;20472;-71
2022/07/10 10:00:34;;;;;;;13.63;5.03;;;22.90;85.40;;;;;;5026030;28;20442;-71
2022/07/10 10:03:05;;;;;;;6.27;4.37;;;23.50;84.80;;;;;;5028104;28;20405;-72
2022/07/10 10:05:31;;;;;;;6.20;3.57;;;23.50;83.90;;;;;;5028306;28;20418;-71
2022/07/10 10:07:57;;;;;;;8.87;4.00;;;23.60;81.40;;;;;;5027682;28;20410;-71
2022/07/10 10:10:24;;;;;;;20.30;5.00;;;23.40;77.50;;;;;;5027651;28;20277;-71
2022/07/10 10:12:58;;;;;;;8.03;5.20;;;23.60;78.30;;;;;;5027284;28;20480;-70
2022/07/10 10:15:25;;;;;;;8.50;4.63;;;23.70;76.40;;;;;;5027340;28;20494;-69
2022/07/10 10:17:52;;;;;;;7.20;3.70;;;23.30;73.80;;;;;;5028445;28;21029;-69
2022/07/10 10:20:38;;;;;;;4.90;2.50;;;23.20;73.20;;;;;;5029009;28;20488;-68
2022/07/10 10:23:10;;;;;;;13.37;4.40;;;22.80;71.10;;;;;;5029970;28;20689;-68
2022/07/10 10:25:37;;;;;;;3.70;3.03;;;22.80;70.00;;;;;;5028798;28;20426;-69
2022/07/10 10:28:06;;;;;;;4.63;2.83;;;22.90;71.00;;;;;;5034069;28;20530;-70
2022/07/10 10:30:32;;;;;;;7.10;4.30;;;23.10;70.70;;;;;;5032748;28;20442;-70
2022/07/10 10:32:59;;;;;;;7.47;3.70;;;23.20;70.20;;;;;;5034198;28;20410;-69
2022/07/10 10:35:46;;;;;;;109.33;11.93;;;23.40;70.00;;;;;;5031281;28;20423;-70
2022/07/10 10:38:13;;;;;;;54.07;7.17;;;23.30;63.70;;;;;;5030374;28;20446;-69
2022/07/10 10:40:39;;;;;;;10.50;3.27;;;23.60;63.10;;;;;;5030385;28;20449;-68
2022/07/10 10:43:21;;;;;;;14.13;3.50;;;23.70;59.40;;;;;;5027784;28;20473;-68
2022/07/10 10:45:48;;;;;;;12.67;4.57;;;24.10;58.00;;;;;;5023306;28;20971;-70
2022/07/10 10:48:16;;;;;;;5.30;2.77;;;24.10;57.60;;;;;;5027890;28;20529;-70
2022/07/10 10:50:52;;;;;;;6.60;2.70;;;23.60;56.20;;;;;;5031488;28;20438;-69
2022/07/10 10:53:29;;;;;;;3.57;2.50;;;23.20;55.40;;;;;;5031897;28;20414;-70
2022/07/10 10:56:00;;;;;;;8.63;3.20;;;23.20;55.00;;;;;;5029736;28;20849;-69
2022/07/10 10:58:27;;;;;;;15.63;4.10;;;23.30;53.60;;;;;;5018226;28;20460;-70
2022/07/10 11:01:25;;;;;;;4.70;3.30;;;23.60;53.20;;;;;;5032800;28;20422;-71
2022/07/10 11:04:12;;;;;;;15.10;3.90;;;23.60;55.00;;;;;;5035243;28;20525;-71
2022/07/10 11:06:44;;;;;;;12.27;3.33;;;23.40;54.60;;;;;;5032295;28;20429;-71
2022/07/10 11:09:30;;;;;;;9.63;3.30;;;23.30;53.80;;;;;;5032225;28;20476;-68
2022/07/10 11:12:00;;;;;;;4.77;2.17;;;23.50;53.10;;;;;;5027426;28;20460;-68
2022/07/10 11:14:28;;;;;;;13.30;3.77;;;23.60;51.10;;;;;;5032612;28;20410;-69
2022/07/10 11:16:57;;;;;;;16.90;5.37;;;23.60;49.50;;;;;;5032777;28;20465;-68
2022/07/10 11:19:24;;;;;;;13.23;3.97;;;23.90;48.60;;;;;;5033907;28;20422;-70
2022/07/10 11:22:18;;;;;;;8.40;3.57;;;23.70;47.40;;;;;;5030415;28;20488;-68
2022/07/10 11:25:05;;;;;;;14.07;4.43;;;23.50;46.30;;;;;;5005290;28;20418;-71
2022/07/10 11:27:48;;;;;;;6.87;3.50;;;23.10;46.80;;;;;;5032098;28;20529;-70
2022/07/10 11:30:14;;;;;;;7.20;3.20;;;23.10;48.60;;;;;;5031667;28;20497;-68
2022/07/10 11:32:39;;;;;;;8.20;3.30;;;22.80;49.40;;;;;;5030889;28;20430;-69
2022/07/10 11:35:10;;;;;;;17.20;5.40;;;22.80;50.60;;;;;;5032413;28;20225;-69
2022/07/10 11:37:36;;;;;;;10.03;4.37;;;23.00;51.00;;;;;;5029951;28;20247;-70
2022/07/10 11:40:12;;;;;;;7.90;3.93;;;23.50;50.60;;;;;;5031858;28;20442;-69
2022/07/10 11:42:55;;;;;;;11.43;3.80;;;23.30;47.30;;;;;;5032131;28;20222;-69
2022/07/10 11:45:41;;;;;;;17.47;4.13;;;23.20;45.70;;;;;;5032062;28;20884;-70
2022/07/10 11:48:08;;;;;;;27.60;6.30;;;23.20;45.80;;;;;;5032391;28;20422;-66
2022/07/10 11:50:38;;;;;;;3.70;3.03;;;23.20;45.60;;;;;;5012890;28;20467;-70
2022/07/10 11:53:05;;;;;;;8.17;3.60;;;22.80;42.80;;;;;;4995984;28;20412;-69
2022/07/10 11:55:36;;;;;;;6.10;3.40;;;22.50;43.10;;;;;;4993681;28;20519;-70
2022/07/10 11:58:16;;;;;;;6.70;3.13;;;22.60;44.10;;;;;;5025064;28;20455;-68
2022/07/10 12:00:42;;;;;;;4.00;2.80;;;23.10;45.80;;;;;;4991095;28;20435;-68
2022/07/10 12:03:20;;;;;;;5.20;3.50;;;23.40;46.40;;;;;;4997740;28;20869;-68
2022/07/10 12:05:48;;;;;;;2.40;2.20;;;23.70;45.80;;;;;;4994963;28;20173;-70
2022/07/10 12:08:14;;;;;;;11.23;3.07;;;23.40;44.80;;;;;;4995676;28;20535;-67
2022/07/10 12:10:41;;;;;;;11.87;3.70;;;23.40;42.70;;;;;;4994481;28;20911;-68
2022/07/10 12:13:09;;;;;;;9.53;3.67;;;23.50;43.00;;;;;;4992673;28;20241;-68
2022/07/10 12:15:37;;;;;;;17.03;3.87;;;23.70;42.50;;;;;;4990582;28;20427;-68
2022/07/10 12:18:08;;;;;;;11.43;4.00;;;23.70;41.60;;;;;;4990798;28;20452;-68
2022/07/10 12:20:35;;;;;;;10.73;3.30;;;23.70;40.00;;;;;;4990503;28;22065;-69
2022/07/10 12:23:01;;;;;;;10.23;3.20;;;23.80;39.40;;;;;;4991792;28;20420;-69
2022/07/10 12:25:27;;;;;;;5.67;2.40;;;23.60;38.20;;;;;;4990252;28;20775;-67
2022/07/10 12:27:58;;;;;;;36.13;5.30;;;23.20;37.10;;;;;;4988528;28;20439;-67
2022/07/10 12:30:37;;;;;;;7.00;3.50;;;23.20;37.40;;;;;;4988916;28;20196;-67
2022/07/10 12:33:08;;;;;;;35.57;4.47;;;23.20;37.80;;;;;;4985279;28;20457;-67
2022/07/10 12:35:48;;;;;;;18.87;3.90;;;23.30;37.80;;;;;;4990096;28;20412;-67
2022/07/10 12:38:25;;;;;;;20.90;3.67;;;23.40;36.10;;;;;;4986889;28;20464;-68
2022/07/10 12:41:05;;;;;;;3.53;2.13;;;23.20;35.50;;;;;;4988758;28;20465;-69
2022/07/10 12:43:31;;;;;;;7.23;2.37;;;23.20;34.80;;;;;;4990880;28;20881;-68
2022/07/10 12:46:20;;;;;;;14.80;4.03;;;23.30;34.70;;;;;;4989970;28;20420;-69
2022/07/10 12:49:06;;;;;;;11.80;3.97;;;23.50;34.70;;;;;;4989281;28;20562;-68
2022/07/10 12:51:45;;;;;;;2.77;2.03;;;23.60;33.80;;;;;;4989628;28;20450;-68